createdAt,value
2023-03-03T00:01:45.552Z,17.70
2023-03-03T00:04:13.702Z,17.47
2023-03-03T00:06:42.814Z,15.73
2023-03-03T00:09:10.741Z,15.80
2023-03-03T00:11:38.768Z,16.03
2023-03-03T00:14:14.720Z,16.43
2023-03-03T00:16:42.914Z,16.10
2023-03-03T00:19:14.514Z,15.33
2023-03-03T00:21:45.648Z,16.07
2023-03-03T00:24:18.763Z,15.67
2023-03-03T00:26:47.288Z,15.33
2023-03-03T00:29:32.280Z,15.03
2023-03-03T00:32:08.786Z,15.50
2023-03-03T00:34:37.498Z,15.30
2023-03-03T00:37:19.279Z,14.70
2023-03-03T00:39:47.348Z,14.60
2023-03-03T00:42:15.580Z,14.57
2023-03-03T00:44:44.390Z,15.20
2023-03-03T00:47:24.334Z,15.63
2023-03-03T00:49:52.568Z,14.73
2023-03-03T00:52:21.905Z,15.90
2023-03-03T00:54:51.710Z,14.73
2023-03-03T00:57:19.442Z,14.27
2023-03-03T00:59:48.610Z,14.80
2023-03-03T01:02:16.448Z,15.90
2023-03-03T01:04:45.768Z,15.33
2023-03-03T01:07:13.412Z,14.97
2023-03-03T01:09:43.206Z,15.03
2023-03-03T01:12:11.453Z,14.97
2023-03-03T01:14:39.371Z,15.23
2023-03-03T01:17:07.934Z,15.40
2023-03-03T01:19:35.792Z,15.10
2023-03-03T01:22:03.882Z,14.40
2023-03-03T01:24:31.748Z,15.00
2023-03-03T01:27:00.906Z,14.90
2023-03-03T01:29:28.890Z,13.80
2023-03-03T01:31:57.217Z,14.80
2023-03-03T01:34:25.415Z,12.93
2023-03-03T01:36:53.541Z,15.50
2023-03-03T01:39:21.331Z,14.30
2023-03-03T01:41:49.032Z,14.93
2023-03-03T01:44:18.413Z,15.00
2023-03-03T01:46:52.620Z,16.40
2023-03-03T01:49:24.213Z,15.47
2023-03-03T01:51:54.500Z,16.40
2023-03-03T01:54:24.620Z,18.60
2023-03-03T01:56:54.694Z,18.60
2023-03-03T01:59:25.774Z,19.53
2023-03-03T02:01:54.659Z,19.13
2023-03-03T02:04:22.328Z,19.53
2023-03-03T02:06:53.029Z,21.77
2023-03-03T02:09:23.481Z,21.27
2023-03-03T02:11:53.139Z,21.77
2023-03-03T02:14:21.005Z,20.30
2023-03-03T02:16:50.139Z,21.47
2023-03-03T02:19:22.471Z,20.37
2023-03-03T02:21:50.420Z,20.47
2023-03-03T02:24:20.689Z,21.57
2023-03-03T02:26:50.327Z,21.83
2023-03-03T02:29:18.035Z,20.73
2023-03-03T02:31:45.950Z,22.27
2023-03-03T02:34:16.602Z,20.80
2023-03-03T02:36:44.312Z,22.50
2023-03-03T02:39:13.285Z,20.60
2023-03-03T02:41:44.208Z,21.50
2023-03-03T02:44:15.865Z,20.17
2023-03-03T02:46:46.578Z,21.37
2023-03-03T02:49:16.296Z,20.50
2023-03-03T02:51:44.757Z,21.17
2023-03-03T02:54:15.283Z,21.13
2023-03-03T02:56:43.567Z,21.23
2023-03-03T02:59:11.636Z,22.50
2023-03-03T03:01:46.483Z,23.30
2023-03-03T03:04:18.911Z,22.43
2023-03-03T03:06:50.274Z,21.17
2023-03-03T03:09:19.451Z,22.30
2023-03-03T03:11:49.660Z,22.13
2023-03-03T03:14:21.779Z,21.20
2023-03-03T03:16:51.039Z,21.07
2023-03-03T03:19:19.706Z,20.30
2023-03-03T03:21:47.954Z,21.37
2023-03-03T03:24:16.798Z,22.73
2023-03-03T03:26:49.522Z,21.10
2023-03-03T03:29:17.201Z,20.23
2023-03-03T03:31:45.424Z,21.77
2023-03-03T03:34:14.495Z,20.63
2023-03-03T03:36:43.039Z,21.03
2023-03-03T03:39:11.924Z,22.00
2023-03-03T03:41:43.540Z,21.90
2023-03-03T03:44:11.758Z,20.63
2023-03-03T03:46:39.485Z,20.10
2023-03-03T03:49:07.889Z,19.83
2023-03-03T03:51:41.190Z,19.97
2023-03-03T03:54:10.380Z,19.57
2023-03-03T03:56:38.955Z,19.00
2023-03-03T03:59:08.547Z,19.30
2023-03-03T04:01:37.228Z,20.00
2023-03-03T04:04:05.889Z,19.50
2023-03-03T04:06:34.690Z,19.87
2023-03-03T04:09:04.564Z,19.97
2023-03-03T04:11:33.315Z,20.33
2023-03-03T04:14:01.332Z,19.97
2023-03-03T04:16:29.320Z,20.37
2023-03-03T04:18:57.023Z,19.30
2023-03-03T04:21:25.610Z,19.27
2023-03-03T04:23:55.480Z,19.63
2023-03-03T04:26:25.261Z,18.67
2023-03-03T04:28:53.293Z,19.67
2023-03-03T04:31:22.337Z,18.17
2023-03-03T04:33:50.541Z,19.50
2023-03-03T04:36:19.139Z,19.73
2023-03-03T04:38:47.280Z,18.60
2023-03-03T04:41:14.983Z,18.80
2023-03-03T04:43:44.747Z,18.23
2023-03-03T04:46:14.131Z,19.10
2023-03-03T04:48:41.968Z,19.40
2023-03-03T04:51:10.756Z,18.67
2023-03-03T04:53:39.380Z,20.30
2023-03-03T04:56:09.112Z,17.93
2023-03-03T04:58:37.647Z,19.33
2023-03-03T05:01:06.761Z,18.40
2023-03-03T05:03:35.359Z,17.50
2023-03-03T05:06:03.082Z,19.17
2023-03-03T05:08:30.976Z,17.33
2023-03-03T05:10:59.741Z,17.83
2023-03-03T05:13:28.149Z,17.97
2023-03-03T05:15:56.516Z,19.20
2023-03-03T05:18:27.869Z,20.47
2023-03-03T05:20:55.954Z,21.60
2023-03-03T05:23:24.804Z,21.20
2023-03-03T05:25:52.427Z,21.83
2023-03-03T05:28:20.161Z,21.90
2023-03-03T05:30:48.245Z,21.67
2023-03-03T05:33:16.823Z,22.83
2023-03-03T05:35:46.103Z,22.40
2023-03-03T05:38:14.175Z,21.70
2023-03-03T05:40:41.847Z,22.37
2023-03-03T05:43:09.472Z,21.97
2023-03-03T05:45:37.129Z,21.97
2023-03-03T05:48:04.977Z,22.27
2023-03-03T05:50:33.157Z,20.77
2023-03-03T05:53:02.900Z,23.30
2023-03-03T05:55:32.214Z,23.70
2023-03-03T05:57:59.877Z,22.47
2023-03-03T06:00:28.073Z,21.63
2023-03-03T06:02:56.107Z,22.63
2023-03-03T06:05:23.847Z,22.80
2023-03-03T06:07:51.812Z,22.67
2023-03-03T06:10:21.027Z,22.47
2023-03-03T06:12:53.664Z,22.80
2023-03-03T06:15:23.467Z,24.03
2023-03-03T06:17:51.283Z,22.70
2023-03-03T06:20:19.460Z,22.43
2023-03-03T06:22:47.067Z,23.00
2023-03-03T06:25:14.971Z,20.90
2023-03-03T06:27:45.126Z,21.33
2023-03-03T06:30:14.164Z,22.10
2023-03-03T06:32:42.270Z,23.53
2023-03-03T06:35:09.988Z,22.20
2023-03-03T06:37:38.835Z,24.03
2023-03-03T06:40:07.121Z,23.83
2023-03-03T06:42:34.985Z,23.90
2023-03-03T06:45:04.098Z,22.97
2023-03-03T06:47:32.191Z,23.67
2023-03-03T06:49:59.769Z,23.13
2023-03-03T06:52:28.733Z,24.20
2023-03-03T06:54:57.077Z,23.50
2023-03-03T06:57:27.206Z,22.50
2023-03-03T06:59:56.525Z,22.43
2023-03-03T07:02:25.527Z,23.97
2023-03-03T07:04:54.508Z,25.50
2023-03-03T07:07:22.850Z,21.53
2023-03-03T07:09:52.153Z,22.07
2023-03-03T07:12:22.477Z,24.10
2023-03-03T07:14:55.956Z,23.03
2023-03-03T07:17:26.606Z,24.10
2023-03-03T07:19:54.806Z,26.13
2023-03-03T07:22:23.369Z,22.20
2023-03-03T07:24:53.263Z,23.67
2023-03-03T07:27:23.803Z,23.90
2023-03-03T07:29:52.631Z,23.80
2023-03-03T07:32:27.072Z,23.50
2023-03-03T07:34:57.413Z,26.20
2023-03-03T07:37:30.566Z,26.20
2023-03-03T07:39:58.723Z,24.20
2023-03-03T07:42:28.746Z,23.63
2023-03-03T07:45:26.234Z,23.07
2023-03-03T07:47:57.017Z,22.67
2023-03-03T07:50:26.910Z,20.80
2023-03-03T07:52:56.742Z,21.50
2023-03-03T07:55:31.000Z,22.30
2023-03-03T07:58:03.793Z,21.80
2023-03-03T08:00:50.609Z,24.50
2023-03-03T08:03:19.408Z,25.93
2023-03-03T08:05:49.611Z,24.43
2023-03-03T08:08:31.364Z,25.13
2023-03-03T08:10:59.708Z,24.93
2023-03-03T08:13:30.008Z,25.07
2023-03-03T08:16:00.739Z,23.23
2023-03-03T08:18:30.325Z,24.60
2023-03-03T08:21:00.935Z,23.50
2023-03-03T08:23:28.641Z,20.63
2023-03-03T08:25:56.707Z,18.70
2023-03-03T08:28:24.659Z,15.93
2023-03-03T08:31:02.659Z,17.67
2023-03-03T08:33:33.940Z,20.07
2023-03-03T08:36:03.018Z,20.93
2023-03-03T08:38:31.031Z,23.60
2023-03-03T08:40:58.848Z,23.50
2023-03-03T08:43:26.494Z,22.00
2023-03-03T08:45:54.972Z,23.90
2023-03-03T08:48:22.852Z,24.73
2023-03-03T08:50:50.876Z,25.57
2023-03-03T08:53:20.233Z,24.87
2023-03-03T08:55:48.861Z,24.60
2023-03-03T08:58:17.522Z,24.03
2023-03-03T09:00:48.292Z,23.20
2023-03-03T09:03:17.548Z,23.03
2023-03-03T09:05:45.737Z,20.83
2023-03-03T09:08:13.678Z,15.70
2023-03-03T09:10:42.893Z,14.40
2023-03-03T09:13:14.777Z,15.03
2023-03-03T09:15:43.032Z,15.33
2023-03-03T09:18:18.635Z,16.73
2023-03-03T09:20:47.253Z,20.70
2023-03-03T09:23:33.937Z,20.27
2023-03-03T09:26:16.613Z,16.23
2023-03-03T09:28:44.917Z,16.77
2023-03-03T09:31:21.718Z,15.73
2023-03-03T09:33:51.906Z,14.50
2023-03-03T09:36:22.367Z,15.50
2023-03-03T09:38:50.230Z,16.43
2023-03-03T09:41:30.136Z,16.50
2023-03-03T09:44:07.779Z,17.67
2023-03-03T09:46:39.573Z,15.57
2023-03-03T09:49:16.927Z,14.37
2023-03-03T09:51:51.860Z,14.53
2023-03-03T09:54:25.364Z,16.10
2023-03-03T09:57:00.094Z,18.03
2023-03-03T09:59:35.780Z,19.83
2023-03-03T10:02:12.565Z,21.10
2023-03-03T10:04:54.868Z,21.53
2023-03-03T10:07:38.093Z,19.37
2023-03-03T10:10:29.865Z,18.23
2023-03-03T10:13:13.917Z,15.50
2023-03-03T10:15:48.284Z,14.10
2023-03-03T10:18:24.592Z,12.00
2023-03-03T10:21:01.372Z,11.63
2023-03-03T10:23:38.717Z,11.73
2023-03-03T10:26:10.955Z,13.43
2023-03-03T10:28:53.793Z,12.20
2023-03-03T10:31:29.245Z,11.70
2023-03-03T10:34:00.744Z,11.37
2023-03-03T10:36:34.725Z,10.50
2023-03-03T10:39:18.624Z,11.90
2023-03-03T10:41:51.314Z,12.83
2023-03-03T10:44:33.167Z,12.00
2023-03-03T10:47:15.636Z,11.30
2023-03-03T10:49:54.037Z,11.53
2023-03-03T10:52:26.607Z,12.97
2023-03-03T10:55:06.044Z,10.57
2023-03-03T10:57:39.454Z,16.10
2023-03-03T11:00:23.080Z,10.07
2023-03-03T11:02:57.589Z,10.60
2023-03-03T11:05:35.917Z,10.60
2023-03-03T11:08:08.531Z,12.00
2023-03-03T11:10:47.119Z,13.10
2023-03-03T11:13:17.543Z,12.90
2023-03-03T11:15:54.319Z,13.40
2023-03-03T11:18:29.630Z,12.40
2023-03-03T11:21:03.022Z,12.87
2023-03-03T11:23:40.264Z,13.40
2023-03-03T11:26:10.494Z,12.67
2023-03-03T11:28:47.995Z,15.30
2023-03-03T11:31:21.988Z,13.53
2023-03-03T11:33:56.564Z,16.10
2023-03-03T11:36:28.359Z,15.47
2023-03-03T11:38:58.132Z,14.17
2023-03-03T11:41:31.332Z,15.13
2023-03-03T11:44:00.829Z,20.87
2023-03-03T11:46:35.607Z,22.77
2023-03-03T11:49:06.143Z,24.70
2023-03-03T11:51:40.779Z,21.40
2023-03-03T11:54:11.942Z,20.00
2023-03-03T11:56:41.611Z,18.30
2023-03-03T11:59:29.624Z,19.30
2023-03-03T12:02:01.146Z,20.97
2023-03-03T12:04:32.940Z,18.23
2023-03-03T12:07:20.014Z,18.40
2023-03-03T12:09:56.140Z,16.90
2023-03-03T12:12:25.370Z,18.97
2023-03-03T12:15:01.505Z,17.93
2023-03-03T12:17:37.494Z,14.97
2023-03-03T12:20:11.174Z,15.07
2023-03-03T12:22:43.355Z,13.87
2023-03-03T12:25:23.413Z,14.47
2023-03-03T12:27:53.813Z,13.90
2023-03-03T12:30:26.894Z,12.67
2023-03-03T12:33:12.173Z,14.20
2023-03-03T12:35:45.272Z,13.03
2023-03-03T12:38:19.484Z,13.40
2023-03-03T12:40:53.593Z,13.23
2023-03-03T12:43:31.082Z,13.10
2023-03-03T12:46:02.670Z,14.33
2023-03-03T12:48:37.459Z,13.23
2023-03-03T12:51:11.998Z,12.33
2023-03-03T12:53:45.902Z,14.50
2023-03-03T12:56:14.830Z,16.33
2023-03-03T12:58:48.511Z,16.07
2023-03-03T13:01:22.861Z,15.37
2023-03-03T13:03:56.154Z,14.47
2023-03-03T13:06:28.411Z,13.50
2023-03-03T13:09:02.288Z,13.77
2023-03-03T13:11:38.492Z,14.00
2023-03-03T13:14:12.621Z,13.90
2023-03-03T13:16:44.670Z,15.03
2023-03-03T13:19:15.423Z,14.47
2023-03-03T13:21:48.439Z,14.30
2023-03-03T13:24:19.099Z,13.83
2023-03-03T13:26:50.877Z,14.10
2023-03-03T13:29:22.323Z,14.57
2023-03-03T13:31:52.952Z,15.00
2023-03-03T13:34:25.809Z,15.60
2023-03-03T13:36:58.173Z,14.30
2023-03-03T13:39:28.633Z,13.97
2023-03-03T13:41:57.993Z,14.20
2023-03-03T13:44:28.992Z,14.40
2023-03-03T13:47:02.161Z,14.90
2023-03-03T13:49:36.687Z,13.80
2023-03-03T13:52:08.333Z,14.43
2023-03-03T13:54:44.878Z,16.10
2023-03-03T13:57:18.714Z,14.90
2023-03-03T13:59:51.630Z,15.23
2023-03-03T14:02:37.715Z,13.57
2023-03-03T14:05:12.765Z,14.77
2023-03-03T14:07:43.970Z,15.10
2023-03-03T14:10:18.440Z,15.67
2023-03-03T14:12:48.594Z,15.90
2023-03-03T14:15:21.732Z,15.60
2023-03-03T14:17:56.141Z,15.17
2023-03-03T14:20:27.977Z,15.30
2023-03-03T14:22:58.186Z,15.00
2023-03-03T14:25:26.684Z,15.07
2023-03-03T14:28:04.998Z,16.20
2023-03-03T14:30:34.954Z,13.97
2023-03-03T14:33:04.969Z,14.17
2023-03-03T14:35:34.628Z,14.03
2023-03-03T14:38:04.807Z,14.80
2023-03-03T14:40:33.577Z,13.90
2023-03-03T14:43:02.910Z,14.20
2023-03-03T14:45:33.796Z,13.80
2023-03-03T14:48:06.907Z,13.33
2023-03-03T14:50:36.599Z,13.10
2023-03-03T14:53:09.885Z,14.63
2023-03-03T14:55:42.979Z,12.43
2023-03-03T14:58:27.528Z,14.03
2023-03-03T15:01:08.012Z,12.87
2023-03-03T15:03:38.485Z,11.90
2023-03-03T15:06:11.565Z,12.63
2023-03-03T15:08:41.483Z,11.80
2023-03-03T15:11:13.774Z,13.20
2023-03-03T15:13:41.571Z,12.87
2023-03-03T15:16:13.875Z,12.53
2023-03-03T15:19:06.574Z,12.40
2023-03-03T15:21:36.051Z,13.40
2023-03-03T15:24:07.701Z,12.87
2023-03-03T15:26:42.331Z,13.00
2023-03-03T15:29:17.311Z,12.57
2023-03-03T15:31:50.530Z,13.43
2023-03-03T15:34:30.346Z,12.10
2023-03-03T15:37:00.802Z,12.97
2023-03-03T15:39:33.826Z,22.87
2023-03-03T15:42:04.016Z,15.50
2023-03-03T15:44:34.732Z,12.70
2023-03-03T15:47:09.977Z,12.37
2023-03-03T15:49:46.615Z,13.97
2023-03-03T15:52:24.504Z,13.97
2023-03-03T15:55:00.212Z,13.27
2023-03-03T15:57:31.337Z,12.87
2023-03-03T16:00:16.259Z,11.80
2023-03-03T16:02:48.980Z,13.80
2023-03-03T16:05:21.730Z,13.37
2023-03-03T16:07:55.411Z,13.97
2023-03-03T16:10:30.069Z,14.20
2023-03-03T16:13:01.089Z,13.10
2023-03-03T16:15:38.315Z,13.13
2023-03-03T16:18:08.840Z,13.33
2023-03-03T16:20:39.657Z,14.10
2023-03-03T16:23:22.630Z,13.53
2023-03-03T16:26:08.537Z,13.87
2023-03-03T16:28:46.554Z,14.80
2023-03-03T16:31:18.240Z,14.13
2023-03-03T16:33:51.697Z,13.43
2023-03-03T16:36:25.623Z,13.50
2023-03-03T16:38:58.764Z,14.40
2023-03-03T16:41:29.906Z,15.27
2023-03-03T16:44:05.631Z,13.70
2023-03-03T16:46:35.091Z,14.30
2023-03-03T16:49:07.970Z,13.60
2023-03-03T16:51:40.215Z,14.43
2023-03-03T16:54:10.601Z,14.60
2023-03-03T16:56:41.541Z,13.80
2023-03-03T16:59:30.789Z,15.70
2023-03-03T17:02:01.615Z,15.60
2023-03-03T17:04:36.949Z,15.30
2023-03-03T17:07:09.640Z,15.90
2023-03-03T17:09:57.238Z,16.90
2023-03-03T17:12:31.518Z,15.43
2023-03-03T17:15:08.667Z,16.20
2023-03-03T17:17:42.030Z,18.03
2023-03-03T17:20:17.553Z,17.77
2023-03-03T17:22:48.747Z,17.63
2023-03-03T17:25:20.699Z,19.50
2023-03-03T17:27:56.546Z,19.00
2023-03-03T17:30:27.809Z,19.40
2023-03-03T17:33:16.652Z,18.33
2023-03-03T17:35:49.554Z,16.57
2023-03-03T17:38:24.212Z,16.97
2023-03-03T17:40:56.727Z,16.27
2023-03-03T17:43:26.542Z,19.73
2023-03-03T17:45:59.164Z,17.80
2023-03-03T17:48:44.844Z,16.23
2023-03-03T17:51:27.042Z,17.40
2023-03-03T17:54:07.607Z,15.90
2023-03-03T17:56:41.082Z,15.90
2023-03-03T17:59:23.447Z,16.70
2023-03-03T18:02:00.614Z,16.23
2023-03-03T18:04:37.672Z,15.83
2023-03-03T18:07:15.298Z,15.70
2023-03-03T18:09:49.464Z,16.77
2023-03-03T18:12:23.202Z,15.83
2023-03-03T18:15:00.441Z,14.50
2023-03-03T18:17:41.819Z,14.80
2023-03-03T18:20:20.449Z,13.70
2023-03-03T18:22:50.850Z,15.20
2023-03-03T18:25:19.636Z,14.60
2023-03-03T18:27:48.243Z,14.67
2023-03-03T18:30:35.549Z,15.00
2023-03-03T18:33:08.548Z,14.37
2023-03-03T18:35:38.616Z,14.70
2023-03-03T18:38:24.443Z,15.37
2023-03-03T18:40:53.603Z,15.30
2023-03-03T18:43:40.163Z,16.13
2023-03-03T18:46:10.329Z,14.00
2023-03-03T18:48:50.362Z,13.67
2023-03-03T18:51:33.638Z,14.43
2023-03-03T18:54:02.248Z,14.87
2023-03-03T18:56:43.705Z,14.27
2023-03-03T18:59:11.760Z,16.60
2023-03-03T19:01:43.982Z,15.83
2023-03-03T19:04:21.245Z,14.60
2023-03-03T19:06:56.807Z,15.23
2023-03-03T19:09:39.424Z,14.73
2023-03-03T19:12:09.703Z,16.10
2023-03-03T19:14:38.944Z,15.70
2023-03-03T19:17:22.143Z,15.23
2023-03-03T19:20:02.878Z,16.40
2023-03-03T19:22:31.952Z,16.20
2023-03-03T19:25:15.321Z,15.03
2023-03-03T19:27:44.605Z,15.50
2023-03-03T19:30:15.259Z,16.60
2023-03-03T19:32:51.054Z,16.10
2023-03-03T19:35:25.360Z,16.63
2023-03-03T19:37:57.856Z,16.13
2023-03-03T19:40:30.826Z,16.30
2023-03-03T19:43:03.561Z,15.70
2023-03-03T19:45:38.054Z,16.20
2023-03-03T19:48:07.384Z,15.80
2023-03-03T19:50:44.261Z,17.10
2023-03-03T19:53:19.574Z,15.83
2023-03-03T19:55:55.141Z,15.73
2023-03-03T19:58:27.014Z,16.40
2023-03-03T20:00:58.585Z,15.00
2023-03-03T20:03:59.461Z,15.50
2023-03-03T20:06:35.815Z,15.30
2023-03-03T20:09:04.504Z,15.00
2023-03-03T20:11:46.178Z,15.30
2023-03-03T20:14:27.816Z,14.03
2023-03-03T20:16:58.236Z,15.00
2023-03-03T20:19:30.363Z,14.87
2023-03-03T20:22:05.380Z,15.07
2023-03-03T20:24:42.569Z,14.93
2023-03-03T20:27:14.961Z,14.27
2023-03-03T20:29:57.634Z,15.80
2023-03-03T20:32:30.815Z,14.00
2023-03-03T20:35:05.321Z,14.83
2023-03-03T20:37:44.729Z,14.03
2023-03-03T20:40:19.008Z,14.60
2023-03-03T20:42:52.916Z,14.27
2023-03-03T20:45:29.003Z,14.50
2023-03-03T20:48:04.154Z,14.00
2023-03-03T20:50:37.781Z,14.13
2023-03-03T20:53:11.511Z,13.87
2023-03-03T20:55:43.947Z,14.40
2023-03-03T20:58:18.821Z,13.80
2023-03-03T21:00:50.114Z,13.83
2023-03-03T21:03:20.518Z,13.13
2023-03-03T21:05:59.360Z,13.20
2023-03-03T21:08:53.197Z,12.93
2023-03-03T21:11:23.722Z,13.53
2023-03-03T21:13:54.050Z,13.97
2023-03-03T21:16:33.204Z,12.83
2023-03-03T21:19:03.024Z,12.90
2023-03-03T21:21:32.765Z,11.63
2023-03-03T21:24:00.544Z,12.53
2023-03-03T21:26:49.481Z,12.93
2023-03-03T21:29:18.699Z,13.03
2023-03-03T21:31:46.949Z,12.30
2023-03-03T21:34:25.870Z,12.80
2023-03-03T21:36:53.893Z,12.37
2023-03-03T21:39:26.524Z,13.80
2023-03-03T21:41:56.777Z,11.50
2023-03-03T21:44:35.968Z,12.67
2023-03-03T21:47:03.868Z,13.10
2023-03-03T21:49:31.554Z,12.20
2023-03-03T21:52:00.335Z,12.80
2023-03-03T21:54:27.975Z,12.20
2023-03-03T21:56:57.329Z,12.17
2023-03-03T21:59:25.578Z,11.57
2023-03-03T22:01:53.375Z,12.70
2023-03-03T22:04:21.035Z,12.53
2023-03-03T22:06:49.078Z,12.43
2023-03-03T22:09:16.861Z,12.50
2023-03-03T22:11:46.117Z,12.17
2023-03-03T22:14:15.405Z,12.33
2023-03-03T22:16:43.298Z,12.40
2023-03-03T22:19:11.152Z,12.20
2023-03-03T22:21:40.053Z,12.50
2023-03-03T22:24:08.703Z,12.30
2023-03-03T22:26:36.834Z,11.50
2023-03-03T22:29:04.660Z,12.40
2023-03-03T22:31:34.232Z,12.93
2023-03-03T22:34:02.521Z,12.07
2023-03-03T22:36:30.997Z,12.23
2023-03-03T22:38:58.776Z,14.17
2023-03-03T22:41:26.610Z,14.70
2023-03-03T22:43:54.628Z,17.60
2023-03-03T22:46:22.368Z,14.70
2023-03-03T22:48:51.764Z,14.47
2023-03-03T22:51:22.006Z,15.60
2023-03-03T22:53:49.924Z,16.17
2023-03-03T22:56:17.802Z,16.63
2023-03-03T22:58:45.476Z,17.33
2023-03-03T23:01:13.452Z,17.13
2023-03-03T23:03:41.569Z,18.30
2023-03-03T23:06:10.577Z,18.10
2023-03-03T23:08:38.233Z,18.90
2023-03-03T23:11:07.867Z,18.13
2023-03-03T23:13:36.186Z,19.60
2023-03-03T23:16:03.988Z,19.20
2023-03-03T23:18:31.978Z,20.13
2023-03-03T23:20:59.629Z,20.37
2023-03-03T23:23:30.635Z,20.20
2023-03-03T23:25:58.820Z,19.90
2023-03-03T23:28:26.902Z,21.00
2023-03-03T23:30:54.595Z,21.60
2023-03-03T23:33:22.329Z,21.30
2023-03-03T23:35:50.235Z,21.67
2023-03-03T23:38:18.297Z,19.90
2023-03-03T23:40:47.670Z,20.33
2023-03-03T23:43:16.235Z,20.67
2023-03-03T23:45:44.009Z,22.43
2023-03-03T23:48:12.143Z,21.77
2023-03-03T23:50:39.966Z,21.20
2023-03-03T23:53:08.499Z,21.03
2023-03-03T23:55:37.781Z,21.10
2023-03-03T23:58:06.995Z,21.20
